createdAt,value
2023-02-26T00:04:04.442Z,27.68
2023-02-26T00:08:17.062Z,27.89
2023-02-26T00:12:30.513Z,27.80
2023-02-26T00:16:49.503Z,27.80
2023-02-26T00:21:02.271Z,27.59
2023-02-26T00:25:14.682Z,28.39
2023-02-26T00:29:28.065Z,28.42
2023-02-26T00:33:40.962Z,28.18
2023-02-26T00:38:02.641Z,28.06
2023-02-26T00:42:15.506Z,28.39
2023-02-26T00:46:44.916Z,29.08
2023-02-26T00:51:13.506Z,29.28
2023-02-26T00:55:27.242Z,27.90
2023-02-26T00:59:41.319Z,28.92
2023-02-26T01:03:54.079Z,28.53
2023-02-26T01:08:15.858Z,28.57
2023-02-26T01:12:31.135Z,28.65
2023-02-26T01:17:19.132Z,28.72
2023-02-26T01:21:38.909Z,28.85
2023-02-26T01:25:58.735Z,28.76
2023-02-26T01:30:11.424Z,29.00
2023-02-26T01:34:30.291Z,29.13
2023-02-26T01:39:00.507Z,28.50
2023-02-26T01:43:20.195Z,28.72
2023-02-26T01:47:44.518Z,28.57
2023-02-26T01:52:03.238Z,28.59
2023-02-26T01:56:20.257Z,27.69
2023-02-26T02:00:33.355Z,27.71
2023-02-26T02:04:46.978Z,27.40
2023-02-26T02:08:59.614Z,27.31
2023-02-26T02:13:24.471Z,27.21
2023-02-26T02:17:51.022Z,27.21
2023-02-26T02:22:16.222Z,27.29
2023-02-26T02:27:03.924Z,27.51
2023-02-26T02:31:44.266Z,27.32
2023-02-26T02:36:04.839Z,27.10
2023-02-26T02:40:25.766Z,27.18
2023-02-26T02:44:42.044Z,27.37
2023-02-26T02:49:39.414Z,26.84
2023-02-26T02:53:55.430Z,26.90
2023-02-26T02:58:13.987Z,27.40
2023-02-26T03:02:42.100Z,27.62
2023-02-26T03:06:54.618Z,26.32
2023-02-26T03:11:09.108Z,26.69
2023-02-26T03:15:47.832Z,26.69
2023-02-26T03:20:16.366Z,26.72
2023-02-26T03:24:38.013Z,26.03
2023-02-26T03:28:53.692Z,26.00
2023-02-26T03:33:28.395Z,26.21
2023-02-26T03:37:55.154Z,25.32
2023-02-26T03:42:15.754Z,25.14
2023-02-26T03:46:48.979Z,26.22
2023-02-26T03:51:10.833Z,25.89
2023-02-26T03:55:54.397Z,25.76
2023-02-26T04:00:43.119Z,25.17
2023-02-26T04:05:09.638Z,25.17
2023-02-26T04:09:23.296Z,25.10
2023-02-26T04:13:36.091Z,24.73
2023-02-26T04:17:49.172Z,24.89
2023-02-26T04:22:01.847Z,24.89
2023-02-26T04:26:14.548Z,24.45
2023-02-26T04:30:29.378Z,24.32
2023-02-26T04:34:42.060Z,24.69
2023-02-26T04:38:55.241Z,24.36
2023-02-26T04:43:07.724Z,25.07
2023-02-26T04:47:26.245Z,24.63
2023-02-26T04:51:38.663Z,24.94
2023-02-26T04:55:52.907Z,24.64
2023-02-26T05:00:08.952Z,24.53
2023-02-26T05:04:25.281Z,23.51
2023-02-26T05:08:43.389Z,24.24
2023-02-26T05:12:56.052Z,23.84
2023-02-26T05:17:08.750Z,23.88
2023-02-26T05:21:23.455Z,23.68
2023-02-26T05:25:38.402Z,24.10
2023-02-26T05:29:50.757Z,23.18
2023-02-26T05:34:03.187Z,23.33
2023-02-26T05:38:15.741Z,22.81
2023-02-26T05:42:28.385Z,23.27
2023-02-26T05:46:40.825Z,22.78
2023-02-26T05:50:53.383Z,22.98
2023-02-26T05:55:06.782Z,23.18
2023-02-26T05:59:19.422Z,23.27
2023-02-26T06:03:31.822Z,22.94
2023-02-26T06:07:44.095Z,22.96
2023-02-26T06:11:56.592Z,23.72
2023-02-26T06:16:10.071Z,23.38
2023-02-26T06:20:22.708Z,23.48
2023-02-26T06:24:35.363Z,23.65
2023-02-26T06:28:50.415Z,23.50
2023-02-26T06:33:02.783Z,22.81
2023-02-26T06:37:17.610Z,23.00
2023-02-26T06:41:29.990Z,22.67
2023-02-26T06:45:42.481Z,22.44
2023-02-26T06:49:55.942Z,22.65
2023-02-26T06:54:08.462Z,22.79
2023-02-26T06:58:21.797Z,22.58
2023-02-26T07:02:34.368Z,22.41
2023-02-26T07:06:46.772Z,22.81
2023-02-26T07:10:59.134Z,22.43
2023-02-26T07:15:12.908Z,22.28
2023-02-26T07:19:26.920Z,22.69
2023-02-26T07:23:41.033Z,22.01
2023-02-26T07:27:53.585Z,21.85
2023-02-26T07:32:06.297Z,22.02
2023-02-26T07:36:18.929Z,22.88
2023-02-26T07:40:31.598Z,22.40
2023-02-26T07:44:44.803Z,22.92
2023-02-26T07:48:57.079Z,23.17
2023-02-26T07:53:09.593Z,22.64
2023-02-26T07:57:22.217Z,22.54
2023-02-26T08:01:34.836Z,22.60
2023-02-26T08:05:47.276Z,21.74
2023-02-26T08:09:59.750Z,21.39
2023-02-26T08:14:12.312Z,20.70
2023-02-26T08:18:24.819Z,21.04
2023-02-26T08:22:37.143Z,21.04
2023-02-26T08:26:49.741Z,21.27
2023-02-26T08:31:02.769Z,21.09
2023-02-26T08:35:15.352Z,23.38
2023-02-26T08:39:27.903Z,22.73
2023-02-26T08:43:40.747Z,22.87
2023-02-26T08:47:57.048Z,23.26
2023-02-26T08:52:10.737Z,23.45
2023-02-26T08:56:23.371Z,23.30
2023-02-26T09:00:35.929Z,23.86
2023-02-26T09:04:48.318Z,23.33
2023-02-26T09:09:00.702Z,23.71
2023-02-26T09:13:13.113Z,24.59
2023-02-26T09:17:27.256Z,24.86
2023-02-26T09:21:39.614Z,25.07
2023-02-26T09:25:56.122Z,25.50
2023-02-26T09:30:09.159Z,26.10
2023-02-26T09:34:21.566Z,26.77
2023-02-26T09:38:37.289Z,26.93
2023-02-26T09:43:07.939Z,27.43
2023-02-26T09:47:22.845Z,27.98
2023-02-26T09:51:36.837Z,28.28
2023-02-26T09:55:52.425Z,28.48
2023-02-26T10:00:19.370Z,29.06
2023-02-26T10:04:54.113Z,29.53
2023-02-26T10:09:32.378Z,29.96
2023-02-26T10:13:57.766Z,29.91
2023-02-26T10:18:18.916Z,30.20
2023-02-26T10:22:49.497Z,30.51
2023-02-26T10:27:07.622Z,30.87
2023-02-26T10:31:45.298Z,32.30
2023-02-26T10:36:06.137Z,33.18
2023-02-26T10:40:21.328Z,34.29
2023-02-26T10:44:51.157Z,34.97
2023-02-26T10:49:41.093Z,34.13
2023-02-26T10:54:00.151Z,33.10
2023-02-26T10:58:19.061Z,33.74
2023-02-26T11:02:37.071Z,32.08
2023-02-26T11:06:56.914Z,32.49
2023-02-26T11:11:09.476Z,32.22
2023-02-26T11:15:28.728Z,32.84
2023-02-26T11:19:57.754Z,32.74
2023-02-26T11:24:15.401Z,32.94
2023-02-26T11:28:43.364Z,32.88
2023-02-26T11:32:58.741Z,32.77
2023-02-26T11:37:11.175Z,32.65
2023-02-26T11:41:26.456Z,32.63
2023-02-26T11:45:43.525Z,33.28
2023-02-26T11:50:01.390Z,33.85
2023-02-26T11:54:27.813Z,33.91
2023-02-26T11:58:43.547Z,34.72
2023-02-26T12:03:08.457Z,35.12
2023-02-26T12:07:22.297Z,35.57
2023-02-26T12:11:44.411Z,36.27
2023-02-26T12:16:25.389Z,37.87
2023-02-26T12:21:01.418Z,36.60
2023-02-26T12:25:24.882Z,36.74
2023-02-26T12:29:47.919Z,36.46
2023-02-26T12:34:34.013Z,36.86
2023-02-26T12:39:17.597Z,37.89
2023-02-26T12:43:49.787Z,39.02
2023-02-26T12:48:14.264Z,38.46
2023-02-26T12:52:45.386Z,37.45
2023-02-26T12:57:22.662Z,37.10
2023-02-26T13:02:01.788Z,37.04
2023-02-26T13:06:56.538Z,36.84
2023-02-26T13:11:29.726Z,36.26
2023-02-26T13:16:05.427Z,36.49
2023-02-26T13:20:22.512Z,35.86
2023-02-26T13:24:46.316Z,35.61
2023-02-26T13:29:24.077Z,36.00
2023-02-26T13:33:38.064Z,36.59
2023-02-26T13:37:54.845Z,35.93
2023-02-26T13:42:45.905Z,36.08
2023-02-26T13:47:17.232Z,36.02
2023-02-26T13:51:45.543Z,36.37
2023-02-26T13:56:36.802Z,36.73
2023-02-26T14:01:16.276Z,36.88
2023-02-26T14:05:47.671Z,37.49
2023-02-26T14:10:06.806Z,36.96
2023-02-26T14:14:19.296Z,36.83
2023-02-26T14:18:43.045Z,36.69
2023-02-26T14:23:11.221Z,36.94
2023-02-26T14:27:32.879Z,36.52
2023-02-26T14:31:55.793Z,36.55
2023-02-26T14:36:17.849Z,36.71
2023-02-26T14:40:42.981Z,36.61
2023-02-26T14:45:09.366Z,36.89
2023-02-26T14:49:37.746Z,36.89
2023-02-26T14:53:59.408Z,37.41
2023-02-26T14:58:51.416Z,37.07
2023-02-26T15:03:40.521Z,36.94
2023-02-26T15:07:59.123Z,36.77
2023-02-26T15:12:36.338Z,36.33
2023-02-26T15:17:21.140Z,36.44
2023-02-26T15:22:11.515Z,36.37
2023-02-26T15:26:29.467Z,36.19
2023-02-26T15:30:45.651Z,36.27
2023-02-26T15:35:12.834Z,35.94
2023-02-26T15:39:26.162Z,35.71
2023-02-26T15:43:42.681Z,35.99
2023-02-26T15:47:59.044Z,36.17
2023-02-26T15:52:15.930Z,35.96
2023-02-26T15:56:30.807Z,36.52
2023-02-26T16:00:45.518Z,36.31
2023-02-26T16:04:58.625Z,36.57
2023-02-26T16:09:20.871Z,36.73
2023-02-26T16:13:41.289Z,36.80
2023-02-26T16:17:56.662Z,37.37
2023-02-26T16:22:22.221Z,37.27
2023-02-26T16:26:41.504Z,38.01
2023-02-26T16:30:57.851Z,37.26
2023-02-26T16:35:17.696Z,37.10
2023-02-26T16:39:31.910Z,37.07
2023-02-26T16:43:50.183Z,37.42
2023-02-26T16:48:15.167Z,37.84
2023-02-26T16:52:28.459Z,38.00
2023-02-26T16:56:43.335Z,37.91
2023-02-26T17:01:04.860Z,38.16
2023-02-26T17:05:23.104Z,38.03
2023-02-26T17:09:40.155Z,37.92
2023-02-26T17:14:05.067Z,38.08
2023-02-26T17:18:17.958Z,38.93
2023-02-26T17:22:30.348Z,38.97
2023-02-26T17:26:42.913Z,38.41
2023-02-26T17:30:55.904Z,38.78
2023-02-26T17:35:09.352Z,38.75
2023-02-26T17:39:21.821Z,38.22
2023-02-26T17:43:34.227Z,38.78
2023-02-26T17:47:47.919Z,38.36
2023-02-26T17:52:01.650Z,38.87
2023-02-26T17:56:34.966Z,40.05
2023-02-26T18:00:50.151Z,58.32
2023-02-26T18:05:02.710Z,67.27
2023-02-26T18:09:16.504Z,78.36
2023-02-26T18:13:30.066Z,81.34
2023-02-26T18:17:43.531Z,81.41
2023-02-26T18:21:55.997Z,81.38
2023-02-26T18:26:08.543Z,81.28
2023-02-26T18:30:33.383Z,81.84
2023-02-26T18:34:45.773Z,83.64
2023-02-26T18:39:00.339Z,83.43
2023-02-26T18:43:12.990Z,85.44
2023-02-26T18:47:25.428Z,86.48
2023-02-26T18:51:37.789Z,86.72
2023-02-26T18:55:53.050Z,87.50
2023-02-26T19:00:09.296Z,89.32
2023-02-26T19:04:21.848Z,88.59
2023-02-26T19:08:34.937Z,92.37
2023-02-26T19:12:47.648Z,89.51
2023-02-26T19:17:00.260Z,88.30
2023-02-26T19:21:12.669Z,91.22
2023-02-26T19:25:27.316Z,89.60
2023-02-26T19:29:40.402Z,91.94
2023-02-26T19:33:53.319Z,92.22
2023-02-26T19:38:05.875Z,91.84
2023-02-26T19:42:18.524Z,91.30
2023-02-26T19:46:30.911Z,90.88
2023-02-26T19:50:44.485Z,90.28
2023-02-26T19:54:57.435Z,90.45
2023-02-26T19:59:10.265Z,91.09
2023-02-26T20:03:22.643Z,91.23
2023-02-26T20:07:35.388Z,91.96
2023-02-26T20:11:47.794Z,92.58
2023-02-26T20:16:04.217Z,92.36
2023-02-26T20:20:17.138Z,92.66
2023-02-26T20:24:29.549Z,91.07
2023-02-26T20:28:42.683Z,91.37
2023-02-26T20:32:55.305Z,91.55
2023-02-26T20:37:07.820Z,90.37
2023-02-26T20:41:20.703Z,89.66
2023-02-26T20:45:33.138Z,90.32
2023-02-26T20:49:45.514Z,91.16
2023-02-26T20:53:57.924Z,92.02
2023-02-26T20:58:10.440Z,92.15
2023-02-26T21:02:22.802Z,92.55
2023-02-26T21:06:36.517Z,90.11
2023-02-26T21:10:51.817Z,90.19
2023-02-26T21:15:06.119Z,90.44
2023-02-26T21:19:18.676Z,90.23
2023-02-26T21:23:32.300Z,88.74
2023-02-26T21:27:45.050Z,87.71
2023-02-26T21:32:00.225Z,89.51
2023-02-26T21:36:14.328Z,89.07
2023-02-26T21:40:26.851Z,90.43
2023-02-26T21:44:39.556Z,89.97
2023-02-26T21:48:52.100Z,90.68
2023-02-26T21:53:04.544Z,90.15
2023-02-26T21:57:16.981Z,89.29
2023-02-26T22:01:29.691Z,89.46
2023-02-26T22:05:42.466Z,92.23
2023-02-26T22:09:54.797Z,88.77
2023-02-26T22:14:07.470Z,89.60
2023-02-26T22:18:20.069Z,89.83
2023-02-26T22:22:32.522Z,89.50
2023-02-26T22:26:47.257Z,90.38
2023-02-26T22:31:00.228Z,90.17
2023-02-26T22:35:14.153Z,89.15
2023-02-26T22:39:26.764Z,87.46
2023-02-26T22:43:39.236Z,87.39
2023-02-26T22:47:51.658Z,86.98
2023-02-26T22:52:06.205Z,85.84
2023-02-26T22:56:18.682Z,85.36
2023-02-26T23:00:31.093Z,84.32
2023-02-26T23:04:43.607Z,84.92
2023-02-26T23:08:56.055Z,83.40
2023-02-26T23:13:08.378Z,83.05
2023-02-26T23:17:20.820Z,84.53
2023-02-26T23:21:33.312Z,81.52
2023-02-26T23:25:45.901Z,79.18
2023-02-26T23:29:58.344Z,80.17
2023-02-26T23:34:11.514Z,79.45
2023-02-26T23:38:24.238Z,80.46
2023-02-26T23:42:36.515Z,81.54
2023-02-26T23:46:49.208Z,81.85
2023-02-26T23:51:04.660Z,81.64
2023-02-26T23:55:19.710Z,80.90
2023-02-26T23:59:32.345Z,78.81
